Time;durP1;ratioP1;P1;durP2;ratioP2;P2;SDS_P1;SDS_P2;PMS_P1;PMS_P2;Temp;Humidity;BMP_temperature;BMP_pressure;BME280_temperature;BME280_humidity;BME280_pressure;Samples;Min_cycle;Max_cycle;Signal;HPM_P1;HPM_P2
2021/06/10 00:00:40;;;;;;;4.67;4.37;;;27.50;47.80;;;;;;4996483;28;20495;-75
2021/06/10 00:03:08;;;;;;;4.60;4.30;;;27.50;47.70;;;;;;4995342;28;20519;-75
2021/06/10 00:05:36;;;;;;;4.80;4.40;;;27.50;47.70;;;;;;4989586;28;20507;-74
2021/06/10 00:08:04;;;;;;;4.63;4.33;;;27.50;47.70;;;;;;4994522;28;20433;-75
2021/06/10 00:10:31;;;;;;;4.70;4.43;;;27.40;47.50;;;;;;4994404;28;20433;-75
2021/06/10 00:12:58;;;;;;;4.67;4.27;;;27.50;47.50;;;;;;4994231;28;20496;-75
2021/06/10 00:15:27;;;;;;;4.40;4.20;;;27.40;47.50;;;;;;4995333;28;20431;-75
2021/06/10 00:17:54;;;;;;;5.13;4.83;;;27.40;47.50;;;;;;4993721;28;20440;-74
2021/06/10 00:20:23;;;;;;;4.97;4.67;;;27.40;47.50;;;;;;4995627;28;20418;-75
2021/06/10 00:22:52;;;;;;;4.63;4.40;;;27.40;47.50;;;;;;4996064;28;20506;-75
2021/06/10 00:25:19;;;;;;;4.73;4.43;;;27.50;47.50;;;;;;4991879;28;20454;-75
2021/06/10 00:27:47;;;;;;;4.20;4.00;;;27.40;47.40;;;;;;4994686;28;20544;-75
2021/06/10 00:30:16;;;;;;;5.27;4.87;;;27.40;47.40;;;;;;4996492;28;20443;-75
2021/06/10 00:32:43;;;;;;;4.93;4.63;;;27.40;47.40;;;;;;4996153;28;20528;-75
2021/06/10 00:35:11;;;;;;;4.97;4.57;;;27.40;47.40;;;;;;4993096;28;20453;-75
2021/06/10 00:37:39;;;;;;;5.30;5.00;;;27.40;47.30;;;;;;4998494;28;20520;-75
2021/06/10 00:40:08;;;;;;;4.77;4.47;;;27.40;47.30;;;;;;4995833;28;20506;-75
2021/06/10 00:42:35;;;;;;;4.40;4.20;;;27.30;47.30;;;;;;4995649;28;20421;-75
2021/06/10 00:45:03;;;;;;;4.43;4.23;;;27.30;47.40;;;;;;4990710;28;20515;-74
2021/06/10 00:47:31;;;;;;;4.40;4.20;;;27.30;47.30;;;;;;4994014;28;20414;-75
2021/06/10 00:49:58;;;;;;;5.00;4.70;;;27.30;47.40;;;;;;4993405;28;20414;-75
2021/06/10 00:52:26;;;;;;;4.77;4.47;;;27.30;47.30;;;;;;4996239;28;20478;-75
2021/06/10 00:54:54;;;;;;;4.77;4.40;;;27.30;47.40;;;;;;4994013;28;20474;-75
2021/06/10 00:57:22;;;;;;;4.87;4.57;;;27.30;47.30;;;;;;4987347;28;20456;-75
2021/06/10 00:59:49;;;;;;;5.03;4.73;;;27.30;47.30;;;;;;4992797;28;20451;-75
2021/06/10 01:02:17;;;;;;;4.30;4.10;;;27.20;47.20;;;;;;4995013;28;20415;-75
2021/06/10 01:04:44;;;;;;;4.40;4.13;;;27.30;47.30;;;;;;4993977;28;20464;-75
2021/06/10 01:07:16;;;;;;;4.77;4.47;;;27.20;47.20;;;;;;4993410;28;20412;-75
2021/06/10 01:09:46;;;;;;;4.27;4.07;;;27.20;47.30;;;;;;4990351;28;20444;-74
2021/06/10 01:12:18;;;;;;;4.33;4.13;;;27.20;47.20;;;;;;4984933;28;20416;-74
2021/06/10 01:14:49;;;;;;;4.47;4.27;;;27.20;47.30;;;;;;4984429;28;20556;-75
2021/06/10 01:17:16;;;;;;;4.47;4.20;;;27.20;47.30;;;;;;4984955;28;20456;-75
2021/06/10 01:19:55;;;;;;;4.70;4.40;;;27.20;47.90;;;;;;4984645;28;20451;-75
2021/06/10 01:22:29;;;;;;;4.30;4.10;;;27.20;47.20;;;;;;4984937;28;20447;-75
2021/06/10 01:25:07;;;;;;;3.90;3.70;;;27.20;47.20;;;;;;4988580;28;20450;-75
2021/06/10 01:27:38;;;;;;;7.60;4.60;;;27.20;47.20;;;;;;4984854;28;20507;-75
2021/06/10 01:30:07;;;;;;;4.90;4.50;;;27.10;47.20;;;;;;4980398;28;20420;-75
2021/06/10 01:32:35;;;;;;;5.53;5.03;;;27.10;47.20;;;;;;4983410;28;20420;-75
2021/06/10 01:35:02;;;;;;;4.30;4.10;;;27.10;47.80;;;;;;4984702;28;20475;-75
2021/06/10 01:37:30;;;;;;;4.07;3.87;;;27.00;47.20;;;;;;4984607;28;20468;-75
2021/06/10 01:39:57;;;;;;;4.00;3.80;;;27.00;47.20;;;;;;4984581;28;20472;-74
2021/06/10 01:42:25;;;;;;;4.73;4.43;;;27.00;47.30;;;;;;4984236;28;20536;-75
2021/06/10 01:44:54;;;;;;;4.80;4.50;;;27.00;47.30;;;;;;4984569;28;20411;-75
2021/06/10 01:47:21;;;;;;;4.50;4.20;;;27.00;47.30;;;;;;4972931;28;20473;-75
2021/06/10 01:49:49;;;;;;;4.80;4.50;;;27.00;47.20;;;;;;4965104;28;20452;-75
2021/06/10 01:52:18;;;;;;;4.70;4.40;;;27.00;47.20;;;;;;4964987;28;20491;-75
2021/06/10 01:54:45;;;;;;;4.80;4.47;;;27.00;47.20;;;;;;4965437;28;20564;-75
2021/06/10 01:57:13;;;;;;;5.50;4.30;;;27.00;47.00;;;;;;4965195;28;20565;-75
2021/06/10 01:59:40;;;;;;;4.53;4.27;;;27.00;47.10;;;;;;4965274;28;20490;-75
2021/06/10 02:02:09;;;;;;;4.20;3.90;;;26.90;47.00;;;;;;4964533;28;20404;-75
2021/06/10 02:04:36;;;;;;;4.47;4.23;;;26.90;47.10;;;;;;4974915;28;20495;-75
2021/06/10 02:07:04;;;;;;;4.70;4.40;;;26.90;47.10;;;;;;4984114;28;20560;-75
2021/06/10 02:09:31;;;;;;;3.67;3.53;;;26.90;47.10;;;;;;4984596;28;20435;-75
2021/06/10 02:12:00;;;;;;;3.80;3.63;;;26.90;47.10;;;;;;4984219;28;20408;-75
2021/06/10 02:14:28;;;;;;;4.40;4.20;;;26.90;47.10;;;;;;4984300;28;20473;-75
2021/06/10 02:16:55;;;;;;;4.30;4.10;;;26.90;47.00;;;;;;4982702;28;20488;-79
2021/06/10 02:19:24;;;;;;;4.23;4.03;;;26.90;47.00;;;;;;4983646;28;20441;-79
2021/06/10 02:21:51;;;;;;;4.30;4.00;;;26.90;47.00;;;;;;4975554;28;20428;-79
2021/06/10 02:24:19;;;;;;;4.93;4.57;;;26.90;47.00;;;;;;4983217;28;20448;-79
2021/06/10 02:26:46;;;;;;;4.33;4.03;;;26.80;47.00;;;;;;4976536;28;20431;-79
2021/06/10 02:29:14;;;;;;;4.53;4.23;;;26.80;47.10;;;;;;4985423;28;20557;-79
2021/06/10 02:31:41;;;;;;;4.63;4.33;;;26.80;47.20;;;;;;4982767;28;20424;-79
2021/06/10 02:34:09;;;;;;;4.30;4.10;;;26.70;47.10;;;;;;4982022;28;20469;-79
2021/06/10 02:36:39;;;;;;;4.80;4.40;;;26.80;47.10;;;;;;4983547;28;20403;-79
2021/06/10 02:39:08;;;;;;;4.93;4.63;;;26.80;47.10;;;;;;4983928;28;20439;-79
2021/06/10 02:41:37;;;;;;;4.27;4.07;;;26.80;47.00;;;;;;4984036;28;20404;-79
2021/06/10 02:44:04;;;;;;;4.53;4.23;;;26.70;47.00;;;;;;4983470;28;20479;-79
2021/06/10 02:46:32;;;;;;;4.00;3.80;;;26.80;46.90;;;;;;4983894;28;20455;-79
2021/06/10 02:48:59;;;;;;;4.37;4.17;;;26.80;47.00;;;;;;4986878;28;20499;-79
2021/06/10 02:51:28;;;;;;;4.53;4.13;;;26.70;47.00;;;;;;4982762;28;20421;-79
2021/06/10 02:53:57;;;;;;;4.40;4.20;;;26.70;47.10;;;;;;4968369;28;20560;-79
2021/06/10 02:56:24;;;;;;;4.87;4.50;;;26.60;47.00;;;;;;4968306;28;20459;-79
2021/06/10 02:58:52;;;;;;;4.70;4.40;;;26.60;47.10;;;;;;4968112;28;20433;-79
2021/06/10 03:01:19;;;;;;;4.60;4.30;;;26.60;47.00;;;;;;4967907;28;20413;-79
2021/06/10 03:03:48;;;;;;;4.60;4.30;;;26.60;47.20;;;;;;4967327;28;20455;-79
2021/06/10 03:06:15;;;;;;;4.27;3.97;;;26.60;47.10;;;;;;4968196;28;20429;-79
2021/06/10 03:08:43;;;;;;;3.90;3.70;;;26.50;47.10;;;;;;4963002;28;20480;-79
2021/06/10 03:11:12;;;;;;;4.60;4.30;;;26.50;47.20;;;;;;4967827;28;20453;-79
2021/06/10 03:13:39;;;;;;;4.03;3.83;;;26.50;47.30;;;;;;4967395;28;20484;-79
2021/06/10 03:16:07;;;;;;;4.00;3.80;;;26.50;47.10;;;;;;4967776;28;20522;-79
2021/06/10 03:18:34;;;;;;;4.27;4.03;;;26.50;47.10;;;;;;4968183;28;20416;-79
2021/06/10 03:21:02;;;;;;;4.10;3.90;;;26.50;47.10;;;;;;4967689;28;20501;-80
2021/06/10 03:23:29;;;;;;;4.73;4.43;;;26.50;47.20;;;;;;4967503;28;20516;-79
2021/06/10 03:25:57;;;;;;;4.70;4.40;;;26.40;47.20;;;;;;4967740;28;20429;-79
2021/06/10 03:28:26;;;;;;;4.50;4.20;;;26.30;47.20;;;;;;4967836;28;20449;-75
2021/06/10 03:30:54;;;;;;;4.37;4.13;;;26.40;47.20;;;;;;4967264;28;20446;-75
2021/06/10 03:33:22;;;;;;;4.37;4.13;;;26.40;47.20;;;;;;4967382;28;20466;-75
2021/06/10 03:35:49;;;;;;;4.20;4.00;;;26.30;47.20;;;;;;4967700;28;20568;-75
2021/06/10 03:38:17;;;;;;;4.07;3.87;;;26.40;47.10;;;;;;4967361;28;20496;-75
2021/06/10 03:40:45;;;;;;;4.50;4.30;;;26.40;47.10;;;;;;4966946;28;20539;-75
2021/06/10 03:43:13;;;;;;;4.80;4.50;;;26.40;47.10;;;;;;4967320;28;20452;-75
2021/06/10 03:45:42;;;;;;;3.87;3.67;;;26.30;47.20;;;;;;4967318;28;20627;-75
2021/06/10 03:48:10;;;;;;;4.67;4.30;;;26.20;47.20;;;;;;4967113;28;20463;-75
2021/06/10 03:50:37;;;;;;;4.90;4.60;;;26.20;47.20;;;;;;4967454;28;20442;-75
2021/06/10 03:53:05;;;;;;;4.50;4.20;;;26.20;47.30;;;;;;4967261;28;20478;-75
2021/06/10 03:55:32;;;;;;;4.40;4.10;;;26.20;47.40;;;;;;4967149;28;20474;-75
2021/06/10 03:58:00;;;;;;;4.33;4.13;;;26.20;47.30;;;;;;4966804;28;20452;-75
2021/06/10 04:00:27;;;;;;;4.33;4.07;;;26.10;47.30;;;;;;4967721;28;20529;-75
2021/06/10 04:02:58;;;;;;;4.53;4.23;;;26.10;47.30;;;;;;4991956;28;20495;-75
2021/06/10 04:05:28;;;;;;;4.60;4.30;;;26.20;47.30;;;;;;4997365;28;20430;-75
2021/06/10 04:07:56;;;;;;;5.20;4.43;;;26.10;47.40;;;;;;4985589;28;20465;-75
2021/06/10 04:10:23;;;;;;;4.43;4.23;;;26.20;47.30;;;;;;4986279;28;20529;-75
2021/06/10 04:12:51;;;;;;;4.50;4.20;;;26.10;47.30;;;;;;4985868;28;20472;-75
2021/06/10 04:15:18;;;;;;;4.30;4.10;;;26.10;47.30;;;;;;4985714;28;20547;-75
2021/06/10 04:17:46;;;;;;;4.87;4.57;;;26.10;47.30;;;;;;4974642;28;20446;-75
2021/06/10 04:20:15;;;;;;;4.60;4.30;;;26.10;47.40;;;;;;4967207;28;20477;-75
2021/06/10 04:22:43;;;;;;;4.20;4.00;;;26.10;47.40;;;;;;4966919;28;20409;-75
2021/06/10 04:25:11;;;;;;;4.50;4.30;;;26.00;47.30;;;;;;4966929;28;20489;-75
2021/06/10 04:27:38;;;;;;;4.10;3.90;;;26.00;47.40;;;;;;4966657;28;20469;-75
2021/06/10 04:30:07;;;;;;;3.80;3.60;;;26.10;47.30;;;;;;4966360;28;20549;-75
2021/06/10 04:32:34;;;;;;;4.90;4.50;;;26.10;47.40;;;;;;4966227;28;20530;-75
2021/06/10 04:35:03;;;;;;;4.07;3.87;;;26.10;47.30;;;;;;4966080;28;20463;-75
2021/06/10 04:37:32;;;;;;;4.00;3.80;;;26.00;47.20;;;;;;4966561;28;20460;-75
2021/06/10 04:39:59;;;;;;;4.47;4.27;;;26.00;47.40;;;;;;4966480;28;20446;-75
2021/06/10 04:42:26;;;;;;;4.03;3.83;;;26.00;47.40;;;;;;4966205;28;20463;-75
2021/06/10 04:44:54;;;;;;;4.70;4.40;;;26.00;47.30;;;;;;4965934;28;20546;-75
2021/06/10 04:47:21;;;;;;;4.40;4.20;;;26.00;47.40;;;;;;4965559;28;20456;-75
2021/06/10 04:49:49;;;;;;;4.23;4.03;;;26.00;47.40;;;;;;4969283;28;20448;-75
2021/06/10 04:52:16;;;;;;;4.40;4.10;;;26.00;47.30;;;;;;4966187;28;20448;-75
2021/06/10 04:54:45;;;;;;;4.70;4.40;;;26.00;47.20;;;;;;4965708;28;20531;-75
2021/06/10 04:57:12;;;;;;;4.60;4.30;;;26.10;47.20;;;;;;4966303;28;20425;-75
2021/06/10 04:59:40;;;;;;;4.40;4.13;;;26.00;47.10;;;;;;4966189;28;20425;-75
2021/06/10 05:02:07;;;;;;;4.30;4.00;;;26.00;47.20;;;;;;4965423;28;20454;-75
2021/06/10 05:04:35;;;;;;;4.00;3.80;;;26.00;47.10;;;;;;4967578;28;20442;-75
2021/06/10 05:07:03;;;;;;;4.87;4.57;;;26.00;47.20;;;;;;4985539;28;20519;-75
2021/06/10 05:09:30;;;;;;;4.07;3.87;;;26.00;47.10;;;;;;4985441;28;20411;-75
2021/06/10 05:11:59;;;;;;;4.33;4.13;;;26.00;47.00;;;;;;4984783;28;20431;-75
2021/06/10 05:14:26;;;;;;;4.17;3.97;;;26.00;47.00;;;;;;4985370;28;20429;-75
2021/06/10 05:16:54;;;;;;;4.07;3.87;;;26.00;47.10;;;;;;4985559;28;20462;-75
2021/06/10 05:19:22;;;;;;;4.73;4.43;;;26.00;47.00;;;;;;4985298;28;20487;-75
2021/06/10 05:21:51;;;;;;;4.30;4.10;;;26.00;46.90;;;;;;4982982;28;20443;-75
2021/06/10 05:24:19;;;;;;;4.57;4.27;;;26.10;46.90;;;;;;4965265;28;20454;-75
2021/06/10 05:26:46;;;;;;;4.50;4.30;;;26.10;46.90;;;;;;4965333;28;20438;-74
2021/06/10 05:29:15;;;;;;;4.80;4.50;;;26.10;47.20;;;;;;4965418;28;20417;-75
2021/06/10 05:31:43;;;;;;;4.17;3.97;;;26.10;46.80;;;;;;4965907;28;20454;-75
2021/06/10 05:34:10;;;;;;;4.63;4.33;;;26.10;46.80;;;;;;4965467;28;20450;-75
2021/06/10 05:36:38;;;;;;;4.33;4.13;;;26.10;46.80;;;;;;4965320;28;20478;-74
2021/06/10 05:39:05;;;;;;;4.93;4.43;;;26.20;46.80;;;;;;4965724;28;20444;-74
2021/06/10 05:41:33;;;;;;;4.50;4.20;;;26.20;46.80;;;;;;4965585;28;20478;-74
2021/06/10 05:44:00;;;;;;;4.43;4.13;;;26.20;46.60;;;;;;4965219;28;20508;-74
2021/06/10 05:46:29;;;;;;;3.87;3.67;;;26.20;46.60;;;;;;4965593;28;20472;-74
2021/06/10 05:48:57;;;;;;;4.33;4.03;;;26.20;46.50;;;;;;4965491;28;20444;-74
2021/06/10 05:51:24;;;;;;;4.40;4.10;;;26.20;46.40;;;;;;4965323;28;20516;-75
2021/06/10 05:53:52;;;;;;;4.30;4.00;;;26.30;46.40;;;;;;4966109;28;20454;-74
2021/06/10 05:56:19;;;;;;;3.90;3.70;;;26.30;46.40;;;;;;4983638;28;20484;-74
2021/06/10 05:58:46;;;;;;;4.17;3.77;;;26.40;46.20;;;;;;4984251;28;20452;-74
2021/06/10 06:01:14;;;;;;;4.47;4.27;;;26.50;46.10;;;;;;4984434;28;20472;-74
2021/06/10 06:03:44;;;;;;;3.70;3.53;;;26.50;46.10;;;;;;4984550;28;20412;-74
2021/06/10 06:06:12;;;;;;;4.23;3.93;;;26.50;46.10;;;;;;4984780;28;20443;-74
2021/06/10 06:08:39;;;;;;;3.97;3.77;;;26.50;46.00;;;;;;4984830;28;20541;-74
2021/06/10 06:11:06;;;;;;;3.87;3.67;;;26.40;46.10;;;;;;4972294;28;20442;-74
2021/06/10 06:13:45;;;;;;;4.00;3.80;;;26.40;46.00;;;;;;4964922;28;20430;-74
2021/06/10 06:16:14;;;;;;;3.63;3.53;;;26.60;45.90;;;;;;4965562;28;20484;-74
2021/06/10 06:18:43;;;;;;;3.77;3.57;;;26.60;45.90;;;;;;4971199;28;20514;-75
2021/06/10 06:21:10;;;;;;;4.23;4.00;;;26.60;45.80;;;;;;4992106;28;20520;-74
2021/06/10 06:23:39;;;;;;;3.90;3.70;;;26.60;45.70;;;;;;4998731;28;20440;-74
2021/06/10 06:26:07;;;;;;;3.90;3.70;;;26.70;45.80;;;;;;4996478;28;20473;-75
2021/06/10 06:28:34;;;;;;;3.90;3.70;;;26.70;45.60;;;;;;4993631;28;20412;-76
2021/06/10 06:31:04;;;;;;;3.40;3.30;;;26.70;45.70;;;;;;4999357;28;20418;-75
2021/06/10 06:33:32;;;;;;;4.07;3.87;;;26.70;45.70;;;;;;4996097;28;20444;-78
2021/06/10 06:36:01;;;;;;;4.20;4.00;;;26.70;45.60;;;;;;4998216;28;20454;-80
2021/06/10 06:38:28;;;;;;;3.97;3.77;;;26.80;46.20;;;;;;4990856;28;20433;-79
2021/06/10 06:40:56;;;;;;;4.30;4.10;;;26.80;45.60;;;;;;4990158;28;20461;-76
2021/06/10 06:43:25;;;;;;;3.70;3.50;;;26.80;45.50;;;;;;4987546;28;20484;-77
2021/06/10 06:45:52;;;;;;;3.70;3.57;;;26.90;45.50;;;;;;4989839;28;20444;-76
2021/06/10 06:48:21;;;;;;;3.93;3.73;;;26.90;45.40;;;;;;4995898;28;20504;-76
2021/06/10 06:50:48;;;;;;;3.83;3.63;;;26.90;45.40;;;;;;4991705;28;20420;-76
2021/06/10 06:53:17;;;;;;;3.77;3.57;;;27.00;45.40;;;;;;5002173;28;20442;-76
2021/06/10 06:55:45;;;;;;;3.70;3.60;;;27.00;45.30;;;;;;5007298;28;20448;-76
2021/06/10 06:58:12;;;;;;;3.80;3.60;;;27.10;45.30;;;;;;5007355;28;20472;-77
2021/06/10 07:00:40;;;;;;;3.73;3.53;;;27.10;45.20;;;;;;4997308;28;20428;-77
2021/06/10 07:03:07;;;;;;;4.10;3.90;;;27.10;45.20;;;;;;4967670;28;20442;-77
2021/06/10 07:05:34;;;;;;;4.00;3.80;;;27.20;45.20;;;;;;4967635;28;20580;-77
2021/06/10 07:08:07;;;;;;;3.40;3.30;;;27.30;45.20;;;;;;4967920;28;20436;-77
2021/06/10 07:10:45;;;;;;;4.07;3.87;;;27.30;45.10;;;;;;4968037;28;20489;-77
2021/06/10 07:13:17;;;;;;;3.70;3.50;;;27.40;45.10;;;;;;4967872;28;20408;-77
2021/06/10 07:15:44;;;;;;;3.47;3.37;;;27.40;44.90;;;;;;4967904;28;20452;-77
2021/06/10 07:18:12;;;;;;;3.53;3.43;;;27.50;44.90;;;;;;4970473;28;20477;-77
2021/06/10 07:20:39;;;;;;;3.73;3.53;;;27.60;44.90;;;;;;4967875;28;20421;-77
2021/06/10 07:23:07;;;;;;;4.23;3.93;;;27.60;44.80;;;;;;4984821;28;20508;-77
2021/06/10 07:25:36;;;;;;;3.50;3.40;;;27.60;44.80;;;;;;4998764;28;20461;-77
2021/06/10 07:28:04;;;;;;;3.57;3.47;;;27.60;44.70;;;;;;4995872;28;20445;-77
2021/06/10 07:30:31;;;;;;;3.90;3.70;;;27.70;44.80;;;;;;5003505;28;20423;-77
2021/06/10 07:32:59;;;;;;;3.70;3.60;;;27.70;44.70;;;;;;5006421;28;20422;-77
2021/06/10 07:35:30;;;;;;;3.63;3.50;;;27.80;44.80;;;;;;4979663;28;20441;-77
2021/06/10 07:37:57;;;;;;;3.93;3.63;;;27.80;44.60;;;;;;4967327;28;20484;-77
2021/06/10 07:40:25;;;;;;;4.00;3.80;;;27.90;44.60;;;;;;4967563;28;20447;-78
2021/06/10 07:42:54;;;;;;;3.53;3.40;;;28.00;44.70;;;;;;4967559;28;20420;-78
2021/06/10 07:45:22;;;;;;;3.67;3.47;;;28.00;44.60;;;;;;4967383;28;20648;-78
2021/06/10 07:47:49;;;;;;;3.63;3.50;;;28.10;44.60;;;;;;4967401;28;20440;-78
2021/06/10 07:50:17;;;;;;;3.90;3.70;;;28.20;45.10;;;;;;4966863;28;20456;-78
2021/06/10 07:52:45;;;;;;;3.50;3.40;;;28.30;44.40;;;;;;4966613;28;20453;-78
2021/06/10 07:55:13;;;;;;;3.67;3.47;;;28.30;44.40;;;;;;4967358;28;20504;-78
2021/06/10 07:57:41;;;;;;;3.80;3.50;;;28.40;44.20;;;;;;4966844;28;20493;-78
2021/06/10 08:00:11;;;;;;;3.50;3.30;;;28.50;44.20;;;;;;4967368;28;20455;-78
2021/06/10 08:02:40;;;;;;;4.10;3.30;;;28.60;44.10;;;;;;4966503;28;20479;-78
2021/06/10 08:05:09;;;;;;;3.50;3.30;;;28.70;44.10;;;;;;4969974;28;20449;-78
2021/06/10 08:07:42;;;;;;;3.83;3.63;;;28.70;44.00;;;;;;4980571;28;20470;-78
2021/06/10 08:10:11;;;;;;;3.50;3.40;;;28.80;43.80;;;;;;4994669;28;20416;-78
2021/06/10 08:12:40;;;;;;;3.57;3.37;;;28.90;43.80;;;;;;5001076;28;20448;-78
2021/06/10 08:15:10;;;;;;;3.50;3.37;;;28.90;43.60;;;;;;4998185;28;20444;-78
2021/06/10 08:17:37;;;;;;;3.10;3.00;;;29.00;43.70;;;;;;5004557;28;20515;-78
2021/06/10 08:20:07;;;;;;;3.53;3.33;;;29.10;43.60;;;;;;5004822;28;20535;-78
2021/06/10 08:22:34;;;;;;;3.23;3.10;;;29.20;43.60;;;;;;4993485;28;20449;-77
2021/06/10 08:25:02;;;;;;;3.40;3.30;;;29.20;43.40;;;;;;4997484;28;20444;-77
2021/06/10 08:27:29;;;;;;;3.20;3.10;;;29.30;43.30;;;;;;4995999;28;20430;-76
2021/06/10 08:29:57;;;;;;;3.30;3.20;;;29.50;43.30;;;;;;4992135;28;20448;-76
2021/06/10 08:32:25;;;;;;;2.90;2.80;;;29.60;43.10;;;;;;4997069;28;20525;-77
2021/06/10 08:34:53;;;;;;;3.03;2.93;;;29.70;42.90;;;;;;4996508;28;20488;-78
2021/06/10 08:37:20;;;;;;;3.67;3.47;;;29.80;42.90;;;;;;4994672;28;20498;-78
2021/06/10 08:39:48;;;;;;;3.13;3.03;;;29.90;42.80;;;;;;4994378;28;20436;-77
2021/06/10 08:42:15;;;;;;;2.80;2.70;;;30.00;42.60;;;;;;4992690;28;20465;-77
2021/06/10 08:44:43;;;;;;;2.83;2.73;;;30.00;42.60;;;;;;4996782;28;20446;-77
2021/06/10 08:47:12;;;;;;;3.57;3.37;;;30.10;42.40;;;;;;4993792;28;20456;-77
2021/06/10 08:49:46;;;;;;;3.30;3.10;;;30.30;42.50;;;;;;4990656;28;20603;-77
2021/06/10 08:52:14;;;;;;;2.90;2.63;;;30.40;42.30;;;;;;4993194;28;20421;-77
2021/06/10 08:54:41;;;;;;;2.80;2.70;;;30.50;42.20;;;;;;4985710;28;20453;-77
2021/06/10 08:57:09;;;;;;;3.20;3.10;;;30.60;42.10;;;;;;4985255;28;20504;-77
2021/06/10 08:59:36;;;;;;;3.03;2.73;;;30.70;41.90;;;;;;4985342;28;20445;-78
2021/06/10 09:02:08;;;;;;;3.03;2.93;;;30.80;41.80;;;;;;4985776;28;20460;-77
2021/06/10 09:04:35;;;;;;;2.60;2.50;;;30.90;41.60;;;;;;4985524;28;20534;-77
2021/06/10 09:07:07;;;;;;;3.27;3.17;;;31.00;41.60;;;;;;4989883;28;20508;-78
2021/06/10 09:09:35;;;;;;;3.00;2.90;;;31.10;41.50;;;;;;4996584;28;20472;-76
2021/06/10 09:12:07;;;;;;;2.67;2.57;;;31.10;41.50;;;;;;4986728;28;20434;-77
2021/06/10 09:14:54;;;;;;;3.20;2.80;;;31.20;41.50;;;;;;4994635;28;20448;-76
2021/06/10 09:17:29;;;;;;;2.60;2.50;;;31.30;41.40;;;;;;4990860;28;20451;-77
2021/06/10 09:19:57;;;;;;;2.60;2.50;;;31.30;41.20;;;;;;4987881;28;20437;-77
2021/06/10 09:22:40;;;;;;;2.80;2.70;;;31.50;41.20;;;;;;4985598;28;20460;-79
2021/06/10 09:25:09;;;;;;;2.60;2.50;;;31.60;41.00;;;;;;5003464;28;20440;-78
2021/06/10 09:27:49;;;;;;;2.60;2.37;;;31.70;40.90;;;;;;5003456;28;20568;-79
2021/06/10 09:30:29;;;;;;;2.90;2.70;;;31.90;40.80;;;;;;4990741;28;20507;-80
2021/06/10 09:32:56;;;;;;;2.87;2.77;;;32.00;40.70;;;;;;4989487;28;20441;-80
2021/06/10 09:35:29;;;;;;;2.80;2.67;;;32.10;40.60;;;;;;4989051;28;20455;-80
2021/06/10 09:38:04;;;;;;;3.10;2.60;;;32.20;40.60;;;;;;4986124;28;20436;-79
2021/06/10 09:40:31;;;;;;;2.63;2.53;;;32.30;40.40;;;;;;4993576;28;20445;-80
2021/06/10 09:42:59;;;;;;;2.93;2.67;;;32.40;40.30;;;;;;4998652;28;20448;-80
2021/06/10 09:45:29;;;;;;;2.03;2.00;;;32.50;40.20;;;;;;4999557;28;20440;-80
2021/06/10 09:47:59;;;;;;;2.40;2.37;;;32.70;40.20;;;;;;4991864;28;20465;-80
2021/06/10 09:50:28;;;;;;;3.00;2.70;;;32.70;39.90;;;;;;4991557;28;20524;-79
2021/06/10 09:52:56;;;;;;;2.40;2.30;;;32.80;39.80;;;;;;4993276;28;20444;-83
2021/06/10 09:55:30;;;;;;;2.53;2.43;;;32.90;39.80;;;;;;4991223;28;20450;-84
2021/06/10 09:58:02;;;;;;;2.60;2.50;;;32.90;39.80;;;;;;4997282;28;20527;-78
2021/06/10 10:00:29;;;;;;;2.43;2.33;;;33.00;39.60;;;;;;4997538;28;20444;-78
2021/06/10 10:02:57;;;;;;;2.50;2.37;;;33.00;39.60;;;;;;4997288;28;20499;-79
2021/06/10 10:05:25;;;;;;;2.80;2.60;;;33.20;39.60;;;;;;4991992;28;20469;-80
2021/06/10 10:07:53;;;;;;;2.20;2.10;;;33.30;39.50;;;;;;4998720;28;20515;-79
2021/06/10 10:10:22;;;;;;;2.30;2.20;;;33.40;39.40;;;;;;4997597;28;20445;-79
2021/06/10 10:12:53;;;;;;;2.07;2.07;;;33.40;39.30;;;;;;4999536;28;20445;-79
2021/06/10 10:15:21;;;;;;;2.47;2.37;;;33.50;39.80;;;;;;4997980;28;20507;-79
2021/06/10 10:17:49;;;;;;;2.50;2.40;;;33.50;39.10;;;;;;4999007;28;20476;-79
2021/06/10 10:20:17;;;;;;;2.27;2.17;;;33.60;39.00;;;;;;5000746;28;20444;-79
2021/06/10 10:22:45;;;;;;;1.93;1.93;;;33.70;39.00;;;;;;4994716;28;20444;-79
2021/06/10 10:25:13;;;;;;;1.80;1.80;;;33.80;38.90;;;;;;4999651;28;20449;-78
2021/06/10 10:27:41;;;;;;;2.00;2.00;;;33.90;38.80;;;;;;5001477;28;20566;-79
2021/06/10 10:30:15;;;;;;;2.23;2.13;;;33.90;38.80;;;;;;4999710;28;20443;-79
2021/06/10 10:32:44;;;;;;;2.30;2.10;;;33.90;38.70;;;;;;5009192;28;20433;-77
2021/06/10 10:35:26;;;;;;;2.27;2.17;;;34.00;38.70;;;;;;5009916;28;20471;-78
2021/06/10 10:37:54;;;;;;;2.40;2.00;;;34.10;38.40;;;;;;5004803;28;20540;-78
2021/06/10 10:40:22;;;;;;;1.97;1.97;;;34.10;38.00;;;;;;4974396;28;20450;-81
2021/06/10 10:42:54;;;;;;;2.30;2.20;;;34.20;38.10;;;;;;4999433;28;20450;-80
2021/06/10 10:45:24;;;;;;;1.97;1.87;;;34.30;38.20;;;;;;5002435;28;20429;-78
2021/06/10 10:47:59;;;;;;;2.30;2.20;;;34.40;38.20;;;;;;4989518;28;20470;-79
2021/06/10 10:50:34;;;;;;;2.00;1.90;;;34.50;38.10;;;;;;4992555;28;20428;-78
2021/06/10 10:53:02;;;;;;;2.07;1.97;;;34.50;37.70;;;;;;4993129;28;20445;-79
2021/06/10 10:55:31;;;;;;;2.17;2.07;;;34.60;37.70;;;;;;4985274;28;20446;-79
2021/06/10 10:58:03;;;;;;;2.60;2.40;;;34.80;37.80;;;;;;4990145;28;20499;-79
2021/06/10 11:00:54;;;;;;;2.30;2.20;;;34.70;37.40;;;;;;4991529;28;20528;-79
2021/06/10 11:03:27;;;;;;;1.80;1.80;;;34.80;37.60;;;;;;4990632;28;20434;-78
2021/06/10 11:05:55;;;;;;;2.20;2.10;;;34.90;37.50;;;;;;4974494;28;20438;-79
2021/06/10 11:08:23;;;;;;;1.87;1.87;;;35.00;37.40;;;;;;4971573;28;20507;-79
2021/06/10 11:11:00;;;;;;;1.90;1.80;;;35.10;37.20;;;;;;4972590;28;20540;-78
2021/06/10 11:13:32;;;;;;;1.90;1.90;;;35.20;37.10;;;;;;4970459;28;20487;-79
2021/06/10 11:16:03;;;;;;;1.80;1.80;;;35.20;37.00;;;;;;4984149;28;20430;-78
2021/06/10 11:18:46;;;;;;;1.90;1.90;;;35.40;37.00;;;;;;4991166;28;20433;-78
2021/06/10 11:21:29;;;;;;;2.37;1.90;;;35.60;37.00;;;;;;4990244;28;20449;-78
2021/06/10 11:24:10;;;;;;;2.10;1.87;;;35.90;36.60;;;;;;4989489;28;20535;-79
2021/06/10 11:26:46;;;;;;;1.60;1.60;;;36.10;36.20;;;;;;4983808;28;20470;-78
2021/06/10 11:29:14;;;;;;;2.03;1.93;;;36.50;35.80;;;;;;4970167;28;20441;-78
2021/06/10 11:31:43;;;;;;;1.90;1.80;;;36.70;35.10;;;;;;4970108;28;20476;-78
2021/06/10 11:34:30;;;;;;;1.87;1.77;;;36.90;34.60;;;;;;4969591;28;20461;-78
2021/06/10 11:36:57;;;;;;;1.50;1.50;;;37.10;34.40;;;;;;4970616;28;20446;-78
2021/06/10 11:39:30;;;;;;;2.40;1.60;;;37.40;34.50;;;;;;4970975;28;20478;-78
2021/06/10 11:42:07;;;;;;;2.00;1.97;;;37.60;34.10;;;;;;4969789;28;20626;-78
2021/06/10 11:44:44;;;;;;;1.60;1.60;;;37.90;33.70;;;;;;4972419;28;20536;-79
2021/06/10 11:47:27;;;;;;;4.33;3.93;;;38.10;33.60;;;;;;4990909;28;20516;-80
2021/06/10 11:49:54;;;;;;;7.10;4.87;;;37.50;30.60;;;;;;4984145;28;20452;-80
2021/06/10 11:52:22;;;;;;;8.80;5.50;;;37.10;30.10;;;;;;4988634;28;20498;-79
2021/06/10 11:55:07;;;;;;;14.33;9.20;;;36.80;29.20;;;;;;4987508;28;20545;-79
2021/06/10 11:57:34;;;;;;;3.20;2.90;;;36.50;29.40;;;;;;4988909;28;20540;-81
2021/06/10 12:00:07;;;;;;;2.87;2.53;;;36.40;28.40;;;;;;4987973;28;20461;-81
2021/06/10 12:02:37;;;;;;;3.73;2.57;;;36.30;28.00;;;;;;4991075;28;20559;-80
2021/06/10 12:05:08;;;;;;;3.30;2.77;;;36.30;27.50;;;;;;4987487;28;20541;-82
2021/06/10 12:07:36;;;;;;;2.10;2.00;;;36.20;27.60;;;;;;4997815;28;20465;-82
2021/06/10 12:10:09;;;;;;;2.80;2.60;;;36.20;26.50;;;;;;4994564;28;20518;-81
2021/06/10 12:12:39;;;;;;;4.40;2.10;;;36.10;26.40;;;;;;4984334;28;20497;-82
2021/06/10 12:15:08;;;;;;;2.10;2.00;;;36.10;26.20;;;;;;4986527;28;20455;-80
2021/06/10 12:17:54;;;;;;;1.97;1.87;;;36.00;25.70;;;;;;4999905;28;20448;-80
2021/06/10 12:20:25;;;;;;;2.90;2.70;;;36.00;25.90;;;;;;4987988;28;20452;-79
2021/06/10 12:22:59;;;;;;;2.43;2.33;;;36.00;25.60;;;;;;4982011;28;20490;-82
2021/06/10 12:25:28;;;;;;;2.23;2.03;;;36.00;25.70;;;;;;4989027;28;20469;-81
2021/06/10 12:27:57;;;;;;;3.83;1.77;;;35.90;25.20;;;;;;4988399;28;20567;-81
2021/06/10 12:30:31;;;;;;;6.70;2.60;;;35.90;25.30;;;;;;4981497;28;20449;-81
2021/06/10 12:33:17;;;;;;;4.03;2.00;;;36.00;25.50;;;;;;4989397;28;20448;-81
2021/06/10 12:35:46;;;;;;;2.10;1.87;;;36.00;25.20;;;;;;4979523;28;20488;-80
2021/06/10 12:38:13;;;;;;;2.80;1.60;;;36.10;24.50;;;;;;4986339;28;20442;-83
2021/06/10 12:40:43;;;;;;;1.90;1.80;;;36.00;24.70;;;;;;4989331;28;20481;-86
2021/06/10 12:43:19;;;;;;;2.00;1.90;;;36.00;24.40;;;;;;4985084;28;20515;-87
2021/06/10 12:45:47;;;;;;;7.03;1.97;;;35.90;24.70;;;;;;4988936;28;20462;-86
2021/06/10 12:48:26;;;;;;;2.10;1.87;;;36.00;25.70;;;;;;4983579;28;20579;-84
2021/06/10 12:51:18;;;;;;;2.07;1.97;;;36.00;24.80;;;;;;4982840;28;20457;-81
2021/06/10 12:54:03;;;;;;;3.47;1.90;;;35.90;25.10;;;;;;4980437;28;20515;-88
2021/06/10 12:56:44;;;;;;;2.40;1.80;;;36.00;25.10;;;;;;4991380;28;20449;-86
2021/06/10 12:59:21;;;;;;;1.83;1.67;;;36.00;25.30;;;;;;4989872;28;20440;-86